createdAt,value
2019-05-17T00:01:57.950Z,55.77
2019-05-17T00:04:27.878Z,53.03
2019-05-17T00:06:57.540Z,53.10
2019-05-17T00:09:27.203Z,52.17
2019-05-17T00:11:56.998Z,51.97
2019-05-17T00:14:27.142Z,54.97
2019-05-17T00:16:57.406Z,55.07
2019-05-17T00:19:27.283Z,54.50
2019-05-17T00:21:56.944Z,54.63
2019-05-17T00:24:26.755Z,52.23
2019-05-17T00:26:58.631Z,54.07
2019-05-17T00:29:29.093Z,54.50
2019-05-17T00:31:58.766Z,57.67
2019-05-17T00:34:28.486Z,56.80
2019-05-17T00:36:58.198Z,55.93
2019-05-17T00:39:27.861Z,54.77
2019-05-17T00:41:57.584Z,52.67
2019-05-17T00:44:27.752Z,53.13
2019-05-17T00:46:58.951Z,57.27
2019-05-17T00:49:29.907Z,56.80
2019-05-17T00:51:59.584Z,53.87
2019-05-17T00:54:29.281Z,53.30
2019-05-17T00:56:59.026Z,55.37
2019-05-17T00:59:28.786Z,53.83
2019-05-17T01:01:58.511Z,53.17
2019-05-17T01:04:30.363Z,52.57
2019-05-17T01:07:00.092Z,54.93
2019-05-17T01:09:29.759Z,54.83
2019-05-17T01:11:59.496Z,54.50
2019-05-17T01:14:30.632Z,54.73
2019-05-17T01:17:00.308Z,52.63
2019-05-17T01:19:31.595Z,55.93
2019-05-17T01:22:01.316Z,55.13
2019-05-17T01:24:30.991Z,56.87
2019-05-17T01:27:01.697Z,57.33
2019-05-17T01:29:31.366Z,55.17
2019-05-17T01:32:01.033Z,53.17
2019-05-17T01:34:31.087Z,55.53
2019-05-17T01:37:00.736Z,52.70
2019-05-17T01:39:33.384Z,54.93
2019-05-17T01:42:01.902Z,53.43
2019-05-17T01:44:31.567Z,56.37
2019-05-17T01:47:01.242Z,55.37
2019-05-17T01:49:31.312Z,53.23
2019-05-17T01:52:00.985Z,51.47
2019-05-17T01:54:30.678Z,53.10
2019-05-17T01:57:01.998Z,55.33
2019-05-17T01:59:31.663Z,54.13
2019-05-17T02:02:02.980Z,57.13
2019-05-17T02:04:33.224Z,53.33
2019-05-17T02:07:06.706Z,52.90
2019-05-17T02:09:40.690Z,53.03
2019-05-17T02:12:07.322Z,54.57
2019-05-17T02:14:38.501Z,53.97
2019-05-17T02:17:08.161Z,54.20
2019-05-17T02:19:37.840Z,53.87
2019-05-17T02:22:07.640Z,60.40
2019-05-17T02:24:37.241Z,55.03
2019-05-17T02:27:06.958Z,54.23
2019-05-17T02:29:36.659Z,55.37
2019-05-17T02:32:06.630Z,54.03
2019-05-17T02:34:36.385Z,55.17
2019-05-17T02:37:06.082Z,54.23
2019-05-17T02:39:52.508Z,59.80
2019-05-17T02:42:08.853Z,55.93
2019-05-17T02:44:38.532Z,53.97
2019-05-17T02:47:08.558Z,54.97
2019-05-17T02:49:38.232Z,56.70
2019-05-17T02:52:07.898Z,53.50
2019-05-17T02:54:37.657Z,52.40
2019-05-17T02:57:07.350Z,55.43
2019-05-17T02:59:39.174Z,55.40
2019-05-17T03:02:12.600Z,53.60
2019-05-17T03:04:43.219Z,56.83
2019-05-17T03:07:13.751Z,56.20
2019-05-17T03:09:43.706Z,55.83
2019-05-17T03:12:15.422Z,55.53
2019-05-17T03:14:45.086Z,55.27
2019-05-17T03:17:16.399Z,52.70
2019-05-17T03:19:46.073Z,55.30
2019-05-17T03:22:17.190Z,56.53
2019-05-17T03:24:46.833Z,56.13
2019-05-17T03:27:16.528Z,57.47
2019-05-17T03:29:46.190Z,52.60
2019-05-17T03:32:17.975Z,54.17
2019-05-17T03:34:48.863Z,56.27
2019-05-17T03:37:18.516Z,57.00
2019-05-17T03:39:49.658Z,56.40
2019-05-17T03:42:22.497Z,54.27
2019-05-17T03:44:53.095Z,55.50
2019-05-17T03:47:22.798Z,56.77
2019-05-17T03:49:53.262Z,55.63
2019-05-17T03:52:23.256Z,53.50
2019-05-17T03:54:53.335Z,50.87
2019-05-17T03:57:24.003Z,53.90
2019-05-17T03:59:54.247Z,54.17
2019-05-17T04:02:23.908Z,56.90
2019-05-17T04:04:53.615Z,57.33
2019-05-17T04:07:23.751Z,54.23
2019-05-17T04:09:53.942Z,55.20
2019-05-17T04:12:24.220Z,50.43
2019-05-17T04:14:53.893Z,52.53
2019-05-17T04:17:23.574Z,59.07
2019-05-17T04:19:54.010Z,55.17
2019-05-17T04:22:24.028Z,52.50
2019-05-17T04:24:53.830Z,53.40
2019-05-17T04:27:23.522Z,54.57
2019-05-17T04:29:53.547Z,56.80
2019-05-17T04:32:23.561Z,54.17
2019-05-17T04:34:53.477Z,57.87
2019-05-17T04:37:23.235Z,55.57
2019-05-17T04:39:52.903Z,53.67
2019-05-17T04:42:22.999Z,53.17
2019-05-17T04:44:53.046Z,52.57
2019-05-17T04:47:25.347Z,57.40
2019-05-17T04:49:55.035Z,54.47
2019-05-17T04:52:24.774Z,53.90
2019-05-17T04:54:54.589Z,55.57
2019-05-17T04:57:24.288Z,58.73
2019-05-17T04:59:53.987Z,53.30
2019-05-17T05:02:25.115Z,53.17
2019-05-17T05:04:57.640Z,53.37
2019-05-17T05:07:27.603Z,52.87
2019-05-17T05:09:57.353Z,53.37
2019-05-17T05:12:27.062Z,54.40
2019-05-17T05:14:56.729Z,56.43
2019-05-17T05:17:26.399Z,56.80
2019-05-17T05:19:56.410Z,54.77
2019-05-17T05:22:26.080Z,55.97
2019-05-17T05:24:57.654Z,55.60
2019-05-17T05:27:27.407Z,52.40
2019-05-17T05:29:57.076Z,57.63
2019-05-17T05:32:27.251Z,52.53
2019-05-17T05:34:57.054Z,54.00
2019-05-17T05:37:26.741Z,54.03
2019-05-17T05:39:56.395Z,54.47
2019-05-17T05:42:26.148Z,53.60
2019-05-17T05:44:55.819Z,57.27
2019-05-17T05:47:25.502Z,56.60
2019-05-17T05:49:55.215Z,54.73
2019-05-17T05:52:24.878Z,58.47
2019-05-17T05:54:54.555Z,54.97
2019-05-17T05:57:25.440Z,56.90
2019-05-17T05:59:55.134Z,56.47
2019-05-17T06:02:24.786Z,53.93
2019-05-17T06:04:54.477Z,55.10
2019-05-17T06:07:24.154Z,55.20
2019-05-17T06:09:53.823Z,56.67
2019-05-17T06:12:28.007Z,54.87
2019-05-17T06:14:55.189Z,56.57
2019-05-17T06:17:24.853Z,55.67
2019-05-17T06:19:55.353Z,56.17
2019-05-17T06:22:25.046Z,54.80
2019-05-17T06:24:54.748Z,58.53
2019-05-17T06:27:24.472Z,55.87
2019-05-17T06:29:54.058Z,56.80
2019-05-17T06:32:23.732Z,53.20
2019-05-17T06:34:53.975Z,55.20
2019-05-17T06:37:23.639Z,56.00
2019-05-17T06:39:54.353Z,54.33
2019-05-17T06:42:37.425Z,56.23
2019-05-17T06:44:56.961Z,54.53
2019-05-17T06:47:26.613Z,54.97
2019-05-17T06:49:56.300Z,56.83
2019-05-17T06:52:25.983Z,58.47
2019-05-17T06:54:55.653Z,55.27
2019-05-17T06:57:25.376Z,57.90
2019-05-17T06:59:55.717Z,56.27
2019-05-17T07:02:25.656Z,55.27
2019-05-17T07:04:56.980Z,54.37
2019-05-17T07:07:26.744Z,55.10
2019-05-17T07:10:00.588Z,53.90
2019-05-17T07:12:30.957Z,56.23
2019-05-17T07:15:02.671Z,56.60
2019-05-17T07:17:32.331Z,56.87
2019-05-17T07:20:02.007Z,56.10
2019-05-17T07:22:31.671Z,55.07
2019-05-17T07:25:01.497Z,56.37
2019-05-17T07:27:41.520Z,55.17
2019-05-17T07:30:03.189Z,56.13
2019-05-17T07:32:33.566Z,55.30
2019-05-17T07:35:03.671Z,57.43
2019-05-17T07:37:33.413Z,56.40
2019-05-17T07:40:05.218Z,55.83
2019-05-17T07:43:06.950Z,56.53
2019-05-17T07:45:25.594Z,56.97
2019-05-17T07:47:57.028Z,60.87
2019-05-17T07:50:29.196Z,57.53
2019-05-17T07:53:00.503Z,55.13
2019-05-17T07:55:30.311Z,56.80
2019-05-17T07:58:00.355Z,55.80
2019-05-17T08:00:30.638Z,57.77
2019-05-17T08:03:01.151Z,58.20
2019-05-17T08:05:31.018Z,56.43
2019-05-17T08:08:00.671Z,54.27
2019-05-17T08:10:30.492Z,55.93
2019-05-17T08:13:00.177Z,58.43
2019-05-17T08:15:30.466Z,58.10
2019-05-17T08:18:01.812Z,57.60
2019-05-17T08:20:31.707Z,56.67
2019-05-17T08:23:01.660Z,57.70
2019-05-17T08:25:31.340Z,58.17
2019-05-17T08:28:01.043Z,55.97
2019-05-17T08:30:32.556Z,59.90
2019-05-17T08:33:02.219Z,60.57
2019-05-17T08:35:32.613Z,57.87
2019-05-17T08:38:02.281Z,58.97
2019-05-17T08:40:31.965Z,58.90
2019-05-17T08:43:01.750Z,58.83
2019-05-17T08:45:31.435Z,58.20
2019-05-17T08:48:02.576Z,60.90
2019-05-17T08:50:32.348Z,55.93
2019-05-17T08:53:02.032Z,57.90
2019-05-17T08:55:31.709Z,60.60
2019-05-17T08:58:01.379Z,58.40
2019-05-17T09:00:31.689Z,60.07
2019-05-17T09:03:01.694Z,57.97
2019-05-17T09:05:31.466Z,58.50
2019-05-17T09:08:01.142Z,59.30
2019-05-17T09:10:30.912Z,58.33
2019-05-17T09:13:00.599Z,56.77
2019-05-17T09:15:30.335Z,59.33
2019-05-17T09:18:00.375Z,60.70
2019-05-17T09:20:32.395Z,58.23
2019-05-17T09:23:02.072Z,60.30
2019-05-17T09:25:31.754Z,60.43
2019-05-17T09:28:04.167Z,58.83
2019-05-17T09:30:33.826Z,56.93
2019-05-17T09:33:03.506Z,59.37
2019-05-17T09:35:33.250Z,61.50
2019-05-17T09:38:03.302Z,59.23
2019-05-17T09:40:33.014Z,60.97
2019-05-17T09:43:02.697Z,60.50
2019-05-17T09:45:33.736Z,59.27
2019-05-17T09:48:05.198Z,60.57
2019-05-17T09:50:34.915Z,59.40
2019-05-17T09:53:07.526Z,62.03
2019-05-17T09:55:39.532Z,61.97
2019-05-17T09:58:09.981Z,62.03
2019-05-17T10:00:40.151Z,65.10
2019-05-17T10:03:10.086Z,62.40
2019-05-17T10:05:40.587Z,64.30
2019-05-17T10:08:11.110Z,60.67
2019-05-17T10:10:41.141Z,60.43
2019-05-17T10:13:10.971Z,61.87
2019-05-17T10:15:43.639Z,60.47
2019-05-17T10:18:13.325Z,61.40
2019-05-17T10:20:43.005Z,60.33
2019-05-17T10:23:12.679Z,66.13
2019-05-17T10:25:42.379Z,62.57
2019-05-17T10:28:12.087Z,59.93
2019-05-17T10:30:42.155Z,65.20
2019-05-17T10:33:11.850Z,63.83
2019-05-17T10:35:41.599Z,64.00
2019-05-17T10:38:11.266Z,63.57
2019-05-17T10:40:41.295Z,65.83
2019-05-17T10:43:10.987Z,62.47
2019-05-17T10:45:40.729Z,63.30
2019-05-17T10:48:10.583Z,61.83
2019-05-17T10:50:41.943Z,61.03
2019-05-17T10:53:13.073Z,64.83
2019-05-17T10:55:42.775Z,62.90
2019-05-17T10:58:12.708Z,62.73
2019-05-17T11:00:42.373Z,64.30
2019-05-17T11:03:12.065Z,60.67
2019-05-17T11:05:43.386Z,64.47
2019-05-17T11:08:13.043Z,64.83
2019-05-17T11:10:42.534Z,61.73
2019-05-17T11:13:12.231Z,62.60
2019-05-17T11:15:41.920Z,67.73
2019-05-17T11:18:11.697Z,64.43
2019-05-17T11:20:43.670Z,66.60
2019-05-17T11:23:15.070Z,65.77
2019-05-17T11:25:46.189Z,61.47
2019-05-17T11:28:16.445Z,62.33
2019-05-17T11:30:47.152Z,62.40
2019-05-17T11:33:16.812Z,61.83
2019-05-17T11:35:46.569Z,65.63
2019-05-17T11:38:16.181Z,63.83
2019-05-17T11:40:49.779Z,62.57
2019-05-17T11:43:17.952Z,66.30
2019-05-17T11:45:47.604Z,65.80
2019-05-17T11:48:17.280Z,64.73
2019-05-17T11:50:47.101Z,68.13
2019-05-17T11:53:16.959Z,67.17
2019-05-17T11:55:46.901Z,67.07
2019-05-17T11:58:16.584Z,65.90
2019-05-17T12:00:46.417Z,63.47
2019-05-17T12:03:16.692Z,63.00
2019-05-17T12:05:46.483Z,66.97
2019-05-17T12:08:16.209Z,64.17
2019-05-17T12:10:45.910Z,61.80
2019-05-17T12:13:20.313Z,63.93
2019-05-17T12:15:49.977Z,63.40
2019-05-17T12:18:19.635Z,65.10
2019-05-17T12:20:49.337Z,63.47
2019-05-17T12:23:19.013Z,65.70
2019-05-17T12:25:48.686Z,65.67
2019-05-17T12:28:18.444Z,65.43
2019-05-17T12:30:48.110Z,66.07
2019-05-17T12:33:17.883Z,67.57
2019-05-17T12:35:47.723Z,67.13
2019-05-17T12:38:17.408Z,69.33
2019-05-17T12:40:47.087Z,64.63
2019-05-17T12:43:16.759Z,67.80
2019-05-17T12:45:59.358Z,65.43
2019-05-17T12:48:17.836Z,66.93
2019-05-17T12:50:49.154Z,66.23
2019-05-17T12:53:18.911Z,64.20
2019-05-17T12:55:49.063Z,66.90
2019-05-17T12:58:20.371Z,65.70
2019-05-17T13:00:50.030Z,69.00
2019-05-17T13:03:19.728Z,67.53
2019-05-17T13:05:49.429Z,65.43
2019-05-17T13:08:19.075Z,66.63
2019-05-17T13:10:48.751Z,67.43
2019-05-17T13:13:18.415Z,68.07
2019-05-17T13:15:48.100Z,67.57
2019-05-17T13:18:17.785Z,65.10
2019-05-17T13:20:47.464Z,63.37
2019-05-17T13:23:22.831Z,67.63
2019-05-17T13:25:52.522Z,65.47
2019-05-17T13:28:24.932Z,70.70
2019-05-17T13:30:54.639Z,64.80
2019-05-17T13:33:24.325Z,65.97
2019-05-17T13:35:54.005Z,68.63
2019-05-17T13:38:26.385Z,66.50
2019-05-17T13:40:56.029Z,66.93
2019-05-17T13:43:25.700Z,67.00
2019-05-17T13:45:58.222Z,66.00
2019-05-17T13:48:27.919Z,68.93
2019-05-17T13:50:57.590Z,65.77
2019-05-17T13:53:30.371Z,67.37
2019-05-17T13:56:00.114Z,67.40
2019-05-17T13:58:30.162Z,69.20
2019-05-17T14:00:59.827Z,71.57
2019-05-17T14:03:29.573Z,68.60
2019-05-17T14:06:00.617Z,69.47
2019-05-17T14:08:30.287Z,70.50
2019-05-17T14:11:01.462Z,74.00
2019-05-17T14:13:31.374Z,72.23
2019-05-17T14:16:01.535Z,72.00
2019-05-17T14:18:31.229Z,73.10
2019-05-17T14:21:00.903Z,75.87
2019-05-17T14:23:30.571Z,73.87
2019-05-17T14:26:00.288Z,75.47
2019-05-17T14:28:30.080Z,77.00
2019-05-17T14:30:59.772Z,79.60
2019-05-17T14:33:29.456Z,76.33
2019-05-17T14:35:59.333Z,74.63
2019-05-17T14:38:30.737Z,74.07
2019-05-17T14:41:06.545Z,75.17
2019-05-17T14:43:33.316Z,76.53
2019-05-17T14:46:04.033Z,85.27
2019-05-17T14:48:33.712Z,74.37
2019-05-17T14:51:05.976Z,74.30
2019-05-17T14:53:35.634Z,78.03
2019-05-17T14:56:05.401Z,76.17
2019-05-17T14:58:39.477Z,73.10
2019-05-17T15:01:11.374Z,76.60
2019-05-17T15:03:42.041Z,77.70
2019-05-17T15:06:13.044Z,78.57
2019-05-17T15:08:43.559Z,78.90
2019-05-17T15:11:13.855Z,76.97
2019-05-17T15:13:45.240Z,73.80
2019-05-17T15:16:17.098Z,72.87
2019-05-17T15:18:49.759Z,72.40
2019-05-17T15:21:22.096Z,82.77
2019-05-17T15:23:53.034Z,70.43
2019-05-17T15:26:25.571Z,70.73
2019-05-17T15:28:56.628Z,73.33
2019-05-17T15:31:27.331Z,71.23
2019-05-17T15:33:58.045Z,71.60
2019-05-17T15:36:29.297Z,70.27
2019-05-17T15:38:58.958Z,71.37
2019-05-17T15:41:29.500Z,69.47
2019-05-17T15:44:00.029Z,68.57
2019-05-17T15:46:30.711Z,71.37
2019-05-17T15:49:01.417Z,66.33
2019-05-17T15:51:31.964Z,67.80
2019-05-17T15:54:02.387Z,66.93
2019-05-17T15:56:33.987Z,64.27
2019-05-17T15:59:04.781Z,66.00
2019-05-17T16:01:35.936Z,68.57
2019-05-17T16:04:05.679Z,65.77
2019-05-17T16:06:37.212Z,65.63
2019-05-17T16:09:07.682Z,68.00
2019-05-17T16:11:37.373Z,65.93
2019-05-17T16:14:07.045Z,68.83
2019-05-17T16:16:36.797Z,68.77
2019-05-17T16:19:06.462Z,68.13
2019-05-17T16:21:36.164Z,64.57
2019-05-17T16:24:06.037Z,67.87
2019-05-17T16:26:37.185Z,65.83
2019-05-17T16:29:07.006Z,66.73
2019-05-17T16:31:36.684Z,64.90
2019-05-17T16:34:06.499Z,65.90
2019-05-17T16:36:36.187Z,64.37
2019-05-17T16:39:08.507Z,63.70
2019-05-17T16:41:39.993Z,64.43
2019-05-17T16:44:09.687Z,65.73
2019-05-17T16:46:41.424Z,63.77
2019-05-17T16:49:11.167Z,63.57
2019-05-17T16:51:40.872Z,65.23
2019-05-17T16:54:12.761Z,65.17
2019-05-17T16:56:42.426Z,63.47
2019-05-17T16:59:12.528Z,63.47
2019-05-17T17:01:42.176Z,64.53
2019-05-17T17:04:12.258Z,61.63
2019-05-17T17:06:43.093Z,60.77
2019-05-17T17:09:12.763Z,63.47
2019-05-17T17:11:45.667Z,65.13
2019-05-17T17:14:15.326Z,61.10
2019-05-17T17:16:44.983Z,62.37
2019-05-17T17:19:14.656Z,60.83
2019-05-17T17:21:44.386Z,63.80
2019-05-17T17:24:14.141Z,64.33
2019-05-17T17:26:43.827Z,64.63
2019-05-17T17:29:13.503Z,64.30
2019-05-17T17:31:43.175Z,63.20
2019-05-17T17:34:12.838Z,63.10
2019-05-17T17:36:42.670Z,62.27
2019-05-17T17:39:14.985Z,62.30
2019-05-17T17:41:44.664Z,63.67
2019-05-17T17:44:14.364Z,61.17
2019-05-17T17:46:44.031Z,69.30
2019-05-17T17:49:13.631Z,64.07
2019-05-17T17:51:43.333Z,64.23
2019-05-17T17:54:12.894Z,64.33
2019-05-17T17:56:42.571Z,63.77
2019-05-17T17:59:12.278Z,64.73
2019-05-17T18:01:41.991Z,62.17
2019-05-17T18:04:11.666Z,65.67
2019-05-17T18:06:41.891Z,67.07
2019-05-17T18:09:13.984Z,68.03
2019-05-17T18:11:43.630Z,67.63
2019-05-17T18:14:14.013Z,63.53
2019-05-17T18:16:43.978Z,68.30
2019-05-17T18:19:13.658Z,62.67
2019-05-17T18:21:43.368Z,62.97
2019-05-17T18:24:13.131Z,60.53
2019-05-17T18:26:42.792Z,65.17
2019-05-17T18:29:14.037Z,63.97
2019-05-17T18:31:47.919Z,62.47
2019-05-17T18:34:19.027Z,60.73
2019-05-17T18:36:48.744Z,63.70
2019-05-17T18:39:18.421Z,61.30
2019-05-17T18:41:48.110Z,61.50
2019-05-17T18:44:27.224Z,64.70
2019-05-17T18:46:49.211Z,60.73
2019-05-17T18:49:18.895Z,60.90
2019-05-17T18:51:48.681Z,64.37
2019-05-17T18:54:19.390Z,61.50
2019-05-17T18:56:50.018Z,62.50
2019-05-17T18:59:20.623Z,62.63
2019-05-17T19:01:50.366Z,59.70
2019-05-17T19:04:20.060Z,65.50
2019-05-17T19:06:49.827Z,63.03
2019-05-17T19:09:19.531Z,63.53
2019-05-17T19:11:50.629Z,62.80
2019-05-17T19:14:20.310Z,61.43
2019-05-17T19:16:51.124Z,62.07
2019-05-17T19:19:20.862Z,62.80
2019-05-17T19:21:50.541Z,63.33
2019-05-17T19:24:20.441Z,63.13
2019-05-17T19:26:50.116Z,61.50
2019-05-17T19:29:19.998Z,62.63
2019-05-17T19:31:49.689Z,64.97
2019-05-17T19:34:19.335Z,76.83
2019-05-17T19:36:50.536Z,71.40
2019-05-17T19:39:21.741Z,64.60
2019-05-17T19:41:51.419Z,62.80
2019-05-17T19:44:21.681Z,64.23
2019-05-17T19:46:54.642Z,59.80
2019-05-17T19:49:24.398Z,63.70
2019-05-17T19:51:54.107Z,58.43
2019-05-17T19:54:23.792Z,60.27
2019-05-17T19:56:53.566Z,61.07
2019-05-17T19:59:23.264Z,61.47
2019-05-17T20:01:53.099Z,59.77
2019-05-17T20:04:22.967Z,61.53
2019-05-17T20:06:53.833Z,57.43
2019-05-17T20:09:23.538Z,56.80
2019-05-17T20:11:53.219Z,56.87
2019-05-17T20:14:22.903Z,61.77
2019-05-17T20:16:53.200Z,60.30
2019-05-17T20:19:23.488Z,60.13
2019-05-17T20:21:53.140Z,58.53
2019-05-17T20:24:24.324Z,62.83
2019-05-17T20:26:53.995Z,63.03
2019-05-17T20:29:25.456Z,60.87
2019-05-17T20:31:55.469Z,61.77
2019-05-17T20:34:25.966Z,60.60
2019-05-17T20:36:55.681Z,62.57
2019-05-17T20:39:25.339Z,58.77
2019-05-17T20:41:57.403Z,56.83
2019-05-17T20:44:26.455Z,58.93
2019-05-17T20:46:56.215Z,60.43
2019-05-17T20:49:25.878Z,60.33
2019-05-17T20:51:55.666Z,59.43
2019-05-17T20:54:25.380Z,60.23
2019-05-17T20:56:55.114Z,60.37
2019-05-17T20:59:24.797Z,61.23
2019-05-17T21:01:54.475Z,59.83
2019-05-17T21:04:24.344Z,58.03
2019-05-17T21:06:55.112Z,58.67
2019-05-17T21:09:25.065Z,58.17
2019-05-17T21:11:54.746Z,56.50
2019-05-17T21:14:24.404Z,57.87
2019-05-17T21:16:54.088Z,63.80
2019-05-17T21:19:23.757Z,57.77
2019-05-17T21:21:54.959Z,58.93
2019-05-17T21:24:24.655Z,59.80
2019-05-17T21:26:54.330Z,59.07
2019-05-17T21:29:24.058Z,64.10
2019-05-17T21:31:53.843Z,60.33
2019-05-17T21:34:23.576Z,61.57
2019-05-17T21:36:53.280Z,62.70
2019-05-17T21:39:25.641Z,58.53
2019-05-17T21:41:55.301Z,60.30
2019-05-17T21:44:24.981Z,59.50
2019-05-17T21:47:04.266Z,57.00
2019-05-17T21:49:26.179Z,59.93
2019-05-17T21:51:57.313Z,59.20
2019-05-17T21:54:27.083Z,57.53
2019-05-17T21:56:59.683Z,57.20
2019-05-17T21:59:30.568Z,57.57
2019-05-17T22:02:01.059Z,57.70
2019-05-17T22:04:30.741Z,57.07
2019-05-17T22:07:00.423Z,57.03
2019-05-17T22:09:30.108Z,60.60
2019-05-17T22:12:01.414Z,57.47
2019-05-17T22:14:31.175Z,59.03
2019-05-17T22:17:00.956Z,55.87
2019-05-17T22:19:30.679Z,55.23
2019-05-17T22:22:00.417Z,56.63
2019-05-17T22:24:30.309Z,58.83
2019-05-17T22:27:00.078Z,57.17
2019-05-17T22:29:29.730Z,59.60
2019-05-17T22:31:59.434Z,58.10
2019-05-17T22:34:29.194Z,59.93
2019-05-17T22:36:58.861Z,59.20
2019-05-17T22:39:28.773Z,57.53
2019-05-17T22:41:58.521Z,59.03
2019-05-17T22:44:29.230Z,55.33
2019-05-17T22:46:59.005Z,55.47
2019-05-17T22:49:29.169Z,57.17
2019-05-17T22:51:58.846Z,56.97
2019-05-17T22:54:28.510Z,59.30
2019-05-17T22:56:58.368Z,58.80
2019-05-17T22:59:28.215Z,57.77
2019-05-17T23:01:57.914Z,59.50
2019-05-17T23:04:27.580Z,55.83
2019-05-17T23:06:57.341Z,58.20
2019-05-17T23:09:27.013Z,61.07
2019-05-17T23:11:56.691Z,60.17
2019-05-17T23:14:26.431Z,57.23
2019-05-17T23:16:56.270Z,58.37
2019-05-17T23:19:25.976Z,58.03
2019-05-17T23:21:55.657Z,57.23
2019-05-17T23:24:25.561Z,60.97
2019-05-17T23:26:55.384Z,57.83
2019-05-17T23:29:25.250Z,59.20
2019-05-17T23:31:54.964Z,58.40
2019-05-17T23:34:24.623Z,64.30
2019-05-17T23:36:55.614Z,58.70
2019-05-17T23:39:25.349Z,59.83
2019-05-17T23:41:55.021Z,57.93
2019-05-17T23:44:25.859Z,60.07
2019-05-17T23:47:06.558Z,58.60
2019-05-17T23:49:27.076Z,61.70
2019-05-17T23:51:56.960Z,58.70
2019-05-17T23:54:28.426Z,61.37
2019-05-17T23:56:58.088Z,63.67
2019-05-17T23:59:27.767Z,61.30
